Time;durP1;ratioP1;P1;durP2;ratioP2;P2;SDS_P1;SDS_P2;PMS_P1;PMS_P2;Temp;Humidity;BMP_temperature;BMP_pressure;BME280_temperature;BME280_humidity;BME280_pressure;Samples;Min_cycle;Max_cycle;Signal;HPM_P1;HPM_P2
2022/04/30 00:00:42;;;;;;;12.35;6.32;;;14.20;53.00;;;;;;5047976;28;20021;-69
2022/04/30 00:03:09;;;;;;;12.05;6.53;;;14.20;53.00;;;;;;5022425;28;20029;-69
2022/04/30 00:05:35;;;;;;;13.13;6.07;;;14.20;53.20;;;;;;5034602;28;20711;-69
2022/04/30 00:08:06;;;;;;;11.35;6.20;;;14.20;53.20;;;;;;5021094;28;20025;-69
2022/04/30 00:10:37;;;;;;;13.52;6.10;;;14.20;53.20;;;;;;5014848;28;20037;-69
2022/04/30 00:13:04;;;;;;;;;;;14.20;53.20;;;;;;5039311;28;20018;-69
2022/04/30 00:15:30;;;;;;;14.13;6.55;;;14.10;53.20;;;;;;5030430;28;19909;-69
2022/04/30 00:17:56;;;;;;;13.10;6.40;;;14.10;53.40;;;;;;5017505;28;20080;-69
2022/04/30 00:20:22;;;;;;;14.00;6.30;;;14.00;53.50;;;;;;5015135;28;20104;-69
2022/04/30 00:22:47;;;;;;;12.10;6.75;;;14.10;53.60;;;;;;5025923;28;20087;-69
2022/04/30 00:25:14;;;;;;;14.10;6.80;;;14.00;53.60;;;;;;5014942;28;20452;-69
2022/04/30 00:27:40;;;;;;;10.60;6.47;;;14.00;53.80;;;;;;5028338;28;20025;-69
2022/04/30 00:30:06;;;;;;;12.75;6.53;;;13.90;53.80;;;;;;5014823;28;20040;-69
2022/04/30 00:32:32;;;;;;;16.40;6.40;;;13.90;54.10;;;;;;5021347;28;20108;-69
2022/04/30 00:34:58;;;;;;;11.30;6.70;;;13.80;54.10;;;;;;5025183;28;20199;-69
2022/04/30 00:37:24;;;;;;;14.68;6.40;;;13.70;54.40;;;;;;5028172;28;20021;-69
2022/04/30 00:39:49;;;;;;;10.68;5.95;;;13.70;54.50;;;;;;5026924;28;20032;-69
2022/04/30 00:42:15;;;;;;;11.70;5.90;;;13.70;54.60;;;;;;5015435;28;20896;-69
2022/04/30 00:44:43;;;;;;;13.85;6.28;;;13.60;54.70;;;;;;5023904;28;20040;-69
2022/04/30 00:47:15;;;;;;;14.35;6.78;;;13.60;54.70;;;;;;5029352;28;20029;-69
2022/04/30 00:49:41;;;;;;;13.07;6.82;;;13.60;54.80;;;;;;5023859;28;20404;-69
2022/04/30 00:52:08;;;;;;;12.50;6.07;;;13.70;54.80;;;;;;5025732;28;20033;-69
2022/04/30 00:54:37;;;;;;;11.45;6.32;;;13.60;54.90;;;;;;5035779;28;20044;-69
2022/04/30 00:57:06;;;;;;;11.60;6.38;;;13.60;54.80;;;;;;5025297;28;20024;-69
2022/04/30 00:59:32;;;;;;;12.32;6.40;;;13.60;55.00;;;;;;5022901;28;20037;-69
2022/04/30 01:01:59;;;;;;;14.43;6.50;;;13.50;55.00;;;;;;5020827;28;20013;-69
2022/04/30 01:04:25;;;;;;;13.55;7.03;;;13.50;55.20;;;;;;5028244;28;20037;-70
2022/04/30 01:06:55;;;;;;;12.05;6.90;;;13.50;55.30;;;;;;5032484;28;20526;-69
2022/04/30 01:09:28;;;;;;;11.83;6.97;;;13.40;55.40;;;;;;5015590;28;20084;-69
2022/04/30 01:12:08;;;;;;;11.75;6.70;;;13.40;55.50;;;;;;5032068;28;20025;-69
2022/04/30 01:14:34;;;;;;;12.40;7.38;;;13.40;55.60;;;;;;5024339;28;20033;-69
2022/04/30 01:17:05;;;;;;;13.90;7.35;;;13.30;55.70;;;;;;5028281;28;20458;-70
2022/04/30 01:19:33;;;;;;;14.35;7.60;;;13.30;55.80;;;;;;5036297;28;20040;-70
2022/04/30 01:22:01;;;;;;;12.52;6.90;;;13.30;56.10;;;;;;5022179;28;20025;-69
2022/04/30 01:24:28;;;;;;;14.73;7.32;;;13.30;56.10;;;;;;5020495;28;20096;-70
2022/04/30 01:26:56;;;;;;;14.68;7.32;;;13.20;56.30;;;;;;5027531;28;20025;-69
2022/04/30 01:29:24;;;;;;;13.98;7.25;;;13.10;56.40;;;;;;5024319;28;20034;-69
2022/04/30 01:37:25;;;;;;;12.68;7.07;;;13.10;56.50;;;;;;5039348;28;20060;-69
2022/04/30 01:40:03;;;;;;;13.25;7.25;;;13.00;56.70;;;;;;5042220;28;20450;-70
2022/04/30 01:42:31;;;;;;;12.48;7.25;;;13.00;56.90;;;;;;5022945;28;20028;-69
2022/04/30 01:45:00;;;;;;;16.45;7.65;;;12.90;57.20;;;;;;5034542;28;20052;-69
2022/04/30 01:47:28;;;;;;;13.85;8.10;;;12.90;57.30;;;;;;5024118;28;20049;-69
2022/04/30 01:49:53;;;;;;;15.05;8.13;;;12.80;57.50;;;;;;5021769;28;20036;-69
2022/04/30 01:52:19;;;;;;;14.63;7.97;;;12.80;57.70;;;;;;5010008;28;20034;-69
2022/04/30 01:54:45;;;;;;;13.45;8.02;;;12.70;57.80;;;;;;5030898;28;20508;-69
2022/04/30 01:57:12;;;;;;;18.80;8.32;;;12.70;58.90;;;;;;5014335;28;20033;-69
2022/04/30 01:59:39;;;;;;;16.15;8.40;;;12.70;58.20;;;;;;5013389;28;20045;-69
2022/04/30 02:02:06;;;;;;;18.27;7.80;;;12.70;58.10;;;;;;5026911;28;20096;-69
2022/04/30 02:04:32;;;;;;;14.38;8.27;;;12.70;57.90;;;;;;5022757;28;20083;-69
2022/04/30 02:07:00;;;;;;;14.27;7.60;;;12.60;57.90;;;;;;5039745;28;20104;-69
2022/04/30 02:09:28;;;;;;;13.98;8.00;;;12.60;57.90;;;;;;5020584;28;20032;-69
2022/04/30 02:11:58;;;;;;;15.15;8.93;;;12.60;58.00;;;;;;5016316;28;20113;-69
2022/04/30 02:14:30;;;;;;;16.00;8.52;;;12.60;58.20;;;;;;5017090;28;20370;-69
2022/04/30 02:16:58;;;;;;;16.90;8.88;;;12.60;58.40;;;;;;5024648;28;20038;-69
2022/04/30 02:20:18;;;;;;;15.98;9.30;;;12.60;58.60;;;;;;5010673;28;20101;-69
2022/04/30 02:22:21;;;;;;;16.63;8.32;;;12.50;58.60;;;;;;5037986;28;20033;-69
2022/04/30 02:24:48;;;;;;;20.27;9.35;;;12.50;59.00;;;;;;5011968;28;20053;-69
2022/04/30 02:27:14;;;;;;;15.65;8.60;;;12.40;59.20;;;;;;5037429;28;20021;-69
2022/04/30 02:29:40;;;;;;;18.70;8.82;;;12.40;59.40;;;;;;5023258;28;20553;-69
2022/04/30 02:32:06;;;;;;;17.40;8.55;;;12.40;59.50;;;;;;5013180;28;20101;-69
2022/04/30 02:34:34;;;;;;;16.38;8.52;;;12.30;59.70;;;;;;5025855;28;20042;-69
2022/04/30 02:37:01;;;;;;;13.25;8.23;;;12.40;59.80;;;;;;5038137;28;20377;-69
2022/04/30 02:39:26;;;;;;;17.80;9.05;;;12.30;59.60;;;;;;5014011;28;20026;-69
2022/04/30 02:41:52;;;;;;;18.38;8.73;;;12.30;59.60;;;;;;5015419;28;20033;-69
2022/04/30 02:44:18;;;;;;;13.98;8.48;;;12.20;59.70;;;;;;5038150;28;20396;-69
2022/04/30 02:46:44;;;;;;;16.80;9.02;;;12.20;59.90;;;;;;5035327;28;20120;-69
2022/04/30 02:49:09;;;;;;;15.05;8.63;;;12.20;60.00;;;;;;5028827;28;20127;-69
2022/04/30 02:51:35;;;;;;;17.70;8.38;;;12.20;60.00;;;;;;5031507;28;20039;-69
2022/04/30 02:54:01;;;;;;;15.27;8.50;;;12.20;60.00;;;;;;5013998;28;20054;-69
2022/04/30 02:56:28;;;;;;;14.23;7.97;;;12.20;60.10;;;;;;5019443;28;20029;-69
2022/04/30 03:01:38;;;;;;;16.00;8.50;;;12.10;60.40;;;;;;5028884;28;20122;-69
2022/04/30 03:04:03;;;;;;;17.38;9.25;;;12.10;60.60;;;;;;5034707;28;20489;-69
2022/04/30 03:06:34;;;;;;;14.57;8.43;;;12.00;60.70;;;;;;5020886;28;20032;-69
2022/04/30 03:09:00;;;;;;;16.05;9.07;;;12.00;60.70;;;;;;5013663;28;20022;-69
2022/04/30 03:11:26;;;;;;;17.70;8.82;;;12.00;60.80;;;;;;5017622;28;20083;-69
2022/04/30 03:13:52;;;;;;;17.10;9.02;;;12.00;60.80;;;;;;5023228;28;20029;-69
2022/04/30 03:21:46;;;;;;;15.50;8.38;;;11.80;61.10;;;;;;5030363;28;20080;-69
2022/04/30 03:24:27;;;;;;;15.95;8.68;;;11.80;61.40;;;;;;5018203;28;20408;-69
2022/04/30 03:26:52;;;;;;;15.73;9.13;;;11.70;61.70;;;;;;5015561;28;20590;-69
2022/04/30 03:29:22;;;;;;;16.95;9.60;;;11.70;61.70;;;;;;5015611;28;20042;-69
2022/04/30 03:31:49;;;;;;;18.38;8.93;;;11.70;61.70;;;;;;5016130;28;20017;-69
2022/04/30 03:34:15;;;;;;;18.88;9.05;;;11.70;62.20;;;;;;5022954;28;20025;-69
2022/04/30 03:36:42;;;;;;;19.23;9.27;;;11.60;62.20;;;;;;5016014;28;20029;-69
2022/04/30 03:39:09;;;;;;;17.92;9.88;;;11.60;62.50;;;;;;5014856;28;20389;-69
2022/04/30 03:41:35;;;;;;;18.35;9.52;;;11.60;62.60;;;;;;5019550;28;20140;-69
2022/04/30 03:44:02;;;;;;;19.52;9.43;;;11.60;62.80;;;;;;5015006;28;20076;-69
2022/04/30 03:46:28;;;;;;;16.13;9.60;;;11.60;62.80;;;;;;5015139;28;20507;-68
2022/04/30 03:48:56;;;;;;;16.35;8.93;;;11.60;62.80;;;;;;5013015;28;20065;-69
2022/04/30 03:51:24;;;;;;;17.55;9.50;;;11.50;62.80;;;;;;5014374;28;20083;-69
2022/04/30 03:53:50;;;;;;;21.00;10.60;;;11.50;63.10;;;;;;5019228;28;20054;-69
2022/04/30 03:56:24;;;;;;;17.52;9.85;;;11.50;63.20;;;;;;5015141;28;20060;-69
2022/04/30 03:58:50;;;;;;;16.80;9.68;;;11.50;63.40;;;;;;5026264;28;20025;-69
2022/04/30 04:01:21;;;;;;;16.85;9.38;;;11.40;63.40;;;;;;5019012;28;20034;-69
2022/04/30 04:03:48;;;;;;;17.23;9.75;;;11.40;63.40;;;;;;5035187;28;20037;-69
2022/04/30 04:06:15;;;;;;;19.88;10.00;;;11.40;63.20;;;;;;5042741;28;20582;-69
2022/04/30 04:08:42;;;;;;;17.52;10.23;;;11.40;63.50;;;;;;5015184;28;20164;-69
2022/04/30 04:11:10;;;;;;;20.38;9.70;;;11.40;63.60;;;;;;5021062;28;20527;-69
2022/04/30 04:19:06;;;;;;;20.70;10.20;;;11.30;63.60;;;;;;5015094;28;20044;-69
2022/04/30 04:21:31;;;;;;;20.65;9.95;;;11.30;63.80;;;;;;5012122;28;20038;-69
2022/04/30 04:26:41;;;;;;;22.05;10.15;;;11.20;63.90;;;;;;5018246;28;20444;-69
2022/04/30 04:29:07;;;;;;;18.13;10.05;;;11.20;64.00;;;;;;5014899;28;20030;-70
2022/04/30 04:31:33;;;;;;;19.30;10.27;;;11.20;63.90;;;;;;5013797;28;20022;-69
2022/04/30 04:33:59;;;;;;;16.77;10.23;;;11.20;64.00;;;;;;5019689;28;20036;-69
2022/04/30 04:36:25;;;;;;;17.52;10.10;;;11.20;64.10;;;;;;5030543;28;20032;-69
2022/04/30 04:38:50;;;;;;;19.42;9.90;;;11.20;64.20;;;;;;5016911;28;20026;-69
2022/04/30 04:41:16;;;;;;;19.27;10.52;;;11.20;64.30;;;;;;5018653;28;20037;-69
2022/04/30 04:43:42;;;;;;;21.13;10.10;;;11.20;64.30;;;;;;5030854;28;20458;-69
2022/04/30 04:46:08;;;;;;;16.50;10.07;;;11.20;64.50;;;;;;5026932;28;20038;-69
2022/04/30 04:48:34;;;;;;;18.48;10.05;;;11.10;64.50;;;;;;5033087;28;20018;-70
2022/04/30 04:51:01;;;;;;;21.17;10.95;;;11.10;64.50;;;;;;5014461;28;20120;-69
2022/04/30 04:53:26;;;;;;;21.33;10.45;;;11.10;64.70;;;;;;5027383;28;20778;-69
2022/04/30 04:55:53;;;;;;;21.40;10.20;;;11.10;64.80;;;;;;5026167;28;20064;-69
2022/04/30 04:58:18;;;;;;;18.60;10.75;;;11.10;64.90;;;;;;5030438;28;20052;-69
2022/04/30 05:00:44;;;;;;;20.30;10.30;;;11.10;65.10;;;;;;5026915;28;20037;-69
2022/04/30 05:03:12;;;;;;;18.67;10.15;;;11.10;65.20;;;;;;5025815;28;20017;-69
2022/04/30 05:05:38;;;;;;;21.77;10.98;;;11.10;65.30;;;;;;5020940;28;20732;-70
2022/04/30 05:08:04;;;;;;;17.55;9.85;;;11.00;65.50;;;;;;5020107;28;20080;-69
2022/04/30 05:10:30;;;;;;;19.83;10.10;;;11.00;65.60;;;;;;5024916;28;20026;-69
2022/04/30 05:12:56;;;;;;;21.38;10.63;;;11.00;65.60;;;;;;5013441;28;20497;-69
2022/04/30 05:15:22;;;;;;;22.23;10.23;;;11.00;65.70;;;;;;5028435;28;20032;-69
2022/04/30 05:17:48;;;;;;;21.52;10.38;;;11.10;65.80;;;;;;5030650;28;20013;-69
2022/04/30 05:20:13;;;;;;;17.55;9.55;;;11.10;65.70;;;;;;5029525;28;20730;-69
2022/04/30 05:22:39;;;;;;;21.38;10.38;;;11.10;65.70;;;;;;5040912;28;20014;-69
2022/04/30 05:25:06;;;;;;;22.45;10.63;;;11.10;65.70;;;;;;5037204;28;20401;-69
2022/04/30 05:27:32;;;;;;;19.70;10.23;;;11.20;65.70;;;;;;5016331;28;20065;-69
2022/04/30 05:29:57;;;;;;;22.60;10.05;;;11.10;65.70;;;;;;5030902;28;20125;-69
2022/04/30 05:32:23;;;;;;;21.00;10.50;;;11.10;65.70;;;;;;5026158;28;20022;-69
2022/04/30 05:34:50;;;;;;;18.70;10.45;;;11.10;65.80;;;;;;5026275;28;20511;-69
2022/04/30 05:37:16;;;;;;;22.27;10.25;;;11.20;65.90;;;;;;5009118;28;20037;-69
2022/04/30 05:39:42;;;;;;;20.40;10.43;;;11.20;65.90;;;;;;5027133;28;20082;-69
2022/04/30 05:42:07;;;;;;;19.30;10.48;;;11.30;66.00;;;;;;5025310;28;20026;-69
2022/04/30 05:44:33;;;;;;;22.50;10.35;;;11.40;66.10;;;;;;5030072;28;20068;-69
2022/04/30 05:46:59;;;;;;;20.60;10.77;;;11.50;66.10;;;;;;5028505;28;20022;-69
2022/04/30 05:49:25;;;;;;;19.30;10.48;;;11.60;66.00;;;;;;5030354;28;20031;-69
2022/04/30 05:51:51;;;;;;;18.35;10.10;;;11.70;65.90;;;;;;5016480;28;20034;-69
2022/04/30 05:54:16;;;;;;;20.23;10.13;;;11.80;65.70;;;;;;5028182;28;20062;-69
2022/04/30 05:56:44;;;;;;;21.92;10.50;;;12.00;65.70;;;;;;5015205;28;20049;-69
2022/04/30 05:59:10;;;;;;;23.52;10.55;;;12.10;65.50;;;;;;5014339;28;20030;-70
2022/04/30 06:01:35;;;;;;;23.17;10.10;;;12.30;66.10;;;;;;5048324;28;20033;-70
2022/04/30 06:04:02;;;;;;;19.60;10.88;;;12.40;65.00;;;;;;5019052;28;20977;-69
2022/04/30 06:06:28;;;;;;;17.38;10.30;;;12.50;64.90;;;;;;5026241;28;20037;-69
2022/04/30 06:08:53;;;;;;;17.65;10.07;;;12.70;64.50;;;;;;5024100;28;20037;-69
2022/04/30 06:11:21;;;;;;;19.20;10.38;;;12.90;64.10;;;;;;5021989;28;20037;-70
2022/04/30 06:13:47;;;;;;;25.75;11.18;;;13.20;63.40;;;;;;5023260;28;20030;-69
2022/04/30 06:16:12;;;;;;;20.60;10.43;;;13.40;62.60;;;;;;5019826;28;20036;-70
2022/04/30 06:18:38;;;;;;;21.75;11.40;;;13.80;60.90;;;;;;5018807;28;20060;-70
2022/04/30 06:21:04;;;;;;;26.77;13.90;;;14.30;59.00;;;;;;5021892;28;20033;-69
2022/04/30 06:23:30;;;;;;;21.85;10.85;;;14.80;56.80;;;;;;5022223;28;20101;-71
2022/04/30 06:25:56;;;;;;;21.77;11.10;;;15.40;54.30;;;;;;5018914;28;20088;-70
2022/04/30 06:28:21;;;;;;;18.42;11.15;;;16.00;52.00;;;;;;5012357;28;20025;-70
2022/04/30 06:30:47;;;;;;;19.60;10.88;;;16.60;50.10;;;;;;5016780;28;20120;-70
2022/04/30 06:33:13;;;;;;;19.38;10.88;;;16.80;49.00;;;;;;5019656;28;20034;-69
2022/04/30 06:35:39;;;;;;;21.00;10.55;;;17.30;47.70;;;;;;5018909;28;20029;-70
2022/04/30 06:38:06;;;;;;;18.95;11.02;;;17.70;46.50;;;;;;5021916;28;20057;-72
2022/04/30 06:40:32;;;;;;;16.90;10.30;;;18.00;45.50;;;;;;5023162;28;20053;-72
2022/04/30 06:42:59;;;;;;;19.70;11.15;;;18.20;45.00;;;;;;5013363;28;20478;-73
2022/04/30 06:45:25;;;;;;;22.42;11.00;;;18.50;43.90;;;;;;5023554;28;20467;-70
2022/04/30 06:47:50;;;;;;;20.02;11.23;;;18.90;43.10;;;;;;5016984;28;20034;-69
2022/04/30 06:50:16;;;;;;;21.25;10.85;;;19.20;42.50;;;;;;5015250;28;20080;-71
2022/04/30 06:58:11;;;;;;;17.55;10.90;;;19.90;40.50;;;;;;5015989;28;20091;-70
2022/04/30 07:03:24;;;;;;;16.08;10.15;;;19.70;40.10;;;;;;5025350;28;20427;-72
2022/04/30 07:06:02;;;;;;;21.17;10.52;;;19.30;41.10;;;;;;5015668;28;20056;-72
2022/04/30 07:08:47;;;;;;;20.02;10.68;;;19.00;41.90;;;;;;5016464;28;20034;-71
2022/04/30 07:11:13;;;;;;;18.42;10.55;;;18.50;42.70;;;;;;5052954;28;20034;-71
2022/04/30 07:13:39;;;;;;;19.00;10.65;;;18.80;45.00;;;;;;5017860;28;20024;-72
2022/04/30 07:16:04;;;;;;;17.58;11.20;;;17.80;46.20;;;;;;5027629;28;20503;-72
2022/04/30 07:18:30;;;;;;;18.08;10.88;;;17.70;46.50;;;;;;5019526;28;20060;-72
2022/04/30 07:20:56;;;;;;;20.55;11.30;;;17.70;46.40;;;;;;5027372;28;20052;-72
2022/04/30 07:23:22;;;;;;;21.08;10.85;;;17.80;45.80;;;;;;5033718;28;20021;-72
2022/04/30 07:25:48;;;;;;;20.70;11.07;;;17.80;45.70;;;;;;5025336;28;20038;-72
2022/04/30 07:28:14;;;;;;;19.25;11.20;;;17.90;46.00;;;;;;5011765;28;20091;-72
2022/04/30 07:30:40;;;;;;;16.05;10.75;;;18.00;45.60;;;;;;5016139;28;20558;-72
2022/04/30 07:33:06;;;;;;;19.25;11.65;;;18.10;45.30;;;;;;5021238;28;20030;-72
2022/04/30 07:35:32;;;;;;;18.85;11.30;;;18.10;45.60;;;;;;5018433;28;20034;-72
2022/04/30 07:37:58;;;;;;;20.92;11.38;;;18.30;45.40;;;;;;5023650;28;20025;-71
2022/04/30 07:40:24;;;;;;;19.92;12.25;;;18.50;44.50;;;;;;5022741;28;20033;-72
2022/04/30 07:42:50;;;;;;;24.10;12.25;;;18.60;43.90;;;;;;5030823;28;20014;-72
2022/04/30 07:45:16;;;;;;;20.17;12.38;;;18.70;43.80;;;;;;5014319;28;20205;-71
2022/04/30 07:47:42;;;;;;;22.23;11.82;;;18.90;43.40;;;;;;5014928;28;20089;-70
2022/04/30 07:50:09;;;;;;;18.70;12.20;;;19.00;43.40;;;;;;5015031;28;20029;-72
2022/04/30 07:52:35;;;;;;;22.63;12.38;;;19.10;43.20;;;;;;5017144;28;20037;-71
2022/04/30 07:55:02;;;;;;;20.27;12.35;;;19.20;42.40;;;;;;5012670;28;20076;-71
2022/04/30 07:57:28;;;;;;;21.25;12.70;;;19.30;42.20;;;;;;5013363;28;20021;-72
2022/04/30 07:59:54;;;;;;;18.73;11.48;;;19.40;42.10;;;;;;5019267;28;20025;-71
2022/04/30 08:02:20;;;;;;;19.63;12.88;;;19.50;42.00;;;;;;5030536;28;20025;-71
2022/04/30 08:04:46;;;;;;;19.88;12.15;;;19.60;41.80;;;;;;5010891;28;20394;-70
2022/04/30 08:07:12;;;;;;;21.88;13.05;;;19.80;42.00;;;;;;5058209;28;20481;-71
2022/04/30 08:09:38;;;;;;;17.55;12.18;;;20.00;41.50;;;;;;5020454;28;20112;-69
2022/04/30 08:12:04;;;;;;;20.60;13.30;;;20.30;40.60;;;;;;5015760;28;20026;-70
2022/04/30 08:14:29;;;;;;;22.67;13.95;;;20.70;39.30;;;;;;5014072;28;20041;-69
2022/04/30 08:16:55;;;;;;;30.27;17.30;;;20.20;39.60;;;;;;5016415;28;20025;-70
2022/04/30 08:19:21;;;;;;;21.38;14.23;;;19.60;41.10;;;;;;5025249;28;20512;-69
2022/04/30 08:21:48;;;;;;;21.08;13.23;;;21.00;39.00;;;;;;5064925;28;20029;-69
2022/04/30 08:24:15;;;;;;;23.77;13.75;;;20.90;38.70;;;;;;5031573;28;20096;-69
2022/04/30 08:26:43;;;;;;;36.65;14.05;;;19.90;40.90;;;;;;5017710;28;20034;-69
2022/04/30 08:29:09;;;;;;;23.63;14.20;;;19.40;41.90;;;;;;5020181;28;20064;-69
2022/04/30 08:31:35;;;;;;;22.13;14.48;;;18.80;42.80;;;;;;5035117;28;20024;-69
2022/04/30 08:34:01;;;;;;;24.55;16.27;;;18.40;43.90;;;;;;5022111;28;20071;-69
2022/04/30 08:36:27;;;;;;;22.40;16.02;;;18.50;43.20;;;;;;5015310;28;20030;-69
2022/04/30 08:38:53;;;;;;;33.55;15.82;;;18.80;42.00;;;;;;5014021;28;20088;-69
2022/04/30 08:41:21;;;;;;;23.13;16.60;;;21.20;37.20;;;;;;5014267;28;20052;-69
2022/04/30 08:43:48;;;;;;;24.95;17.23;;;23.10;33.60;;;;;;5017805;28;20109;-70
2022/04/30 08:46:20;;;;;;;26.55;18.88;;;23.80;31.00;;;;;;5029361;28;20044;-69
2022/04/30 08:48:46;;;;;;;25.42;18.38;;;23.10;32.50;;;;;;5032315;28;20041;-69
2022/04/30 08:51:14;;;;;;;27.15;18.60;;;22.50;32.40;;;;;;5014550;28;20026;-69
2022/04/30 08:53:41;;;;;;;25.77;17.70;;;21.10;35.30;;;;;;5032345;28;20076;-69
2022/04/30 08:56:10;;;;;;;38.35;18.40;;;20.30;37.50;;;;;;5026536;28;20032;-69
2022/04/30 08:58:36;;;;;;;31.48;18.58;;;20.70;37.10;;;;;;5012796;28;20030;-69
2022/04/30 09:01:04;;;;;;;24.40;17.98;;;21.90;35.50;;;;;;5026934;28;20491;-70
2022/04/30 09:03:37;;;;;;;27.65;17.88;;;22.00;34.20;;;;;;5028663;28;20045;-70
2022/04/30 09:06:04;;;;;;;28.23;18.05;;;22.10;34.00;;;;;;5015141;28;20125;-70
2022/04/30 09:08:30;;;;;;;36.50;18.83;;;22.00;34.20;;;;;;5027473;28;20029;-69
2022/04/30 09:11:09;;;;;;;26.05;18.77;;;21.40;35.80;;;;;;5023966;28;20040;-70
2022/04/30 09:13:46;;;;;;;24.58;19.17;;;20.70;37.20;;;;;;5025976;28;20042;-69
2022/04/30 09:16:23;;;;;;;27.58;19.98;;;20.10;37.90;;;;;;5013991;28;20082;-69
2022/04/30 09:18:52;;;;;;;26.70;19.90;;;19.70;38.80;;;;;;5034500;28;20072;-69
2022/04/30 09:21:18;;;;;;;28.10;19.17;;;19.30;39.20;;;;;;5014495;28;20026;-69
2022/04/30 09:23:45;;;;;;;30.60;20.20;;;18.90;39.90;;;;;;5012435;28;20022;-69
2022/04/30 09:26:11;;;;;;;28.25;19.52;;;18.60;40.80;;;;;;5014277;28;20619;-70
2022/04/30 09:28:39;;;;;;;30.55;19.77;;;18.40;42.10;;;;;;5030585;28;20052;-69
2022/04/30 09:31:18;;;;;;;27.55;18.63;;;18.30;42.50;;;;;;5031608;28;20024;-69
2022/04/30 09:33:50;;;;;;;26.90;19.05;;;18.40;41.80;;;;;;5025197;28;20021;-69
2022/04/30 09:39:17;;;;;;;30.52;19.05;;;19.20;41.20;;;;;;5023274;28;20036;-70
2022/04/30 09:41:43;;;;;;;26.58;18.17;;;19.50;40.20;;;;;;5026731;28;20030;-70
2022/04/30 09:44:12;;;;;;;30.48;20.23;;;19.50;40.00;;;;;;5024716;28;20061;-72
2022/04/30 09:46:40;;;;;;;31.20;20.85;;;19.70;39.40;;;;;;5022960;28;20034;-69
2022/04/30 09:54:37;;;;;;;44.08;21.15;;;19.30;40.40;;;;;;5031278;28;20072;-69
2022/04/30 09:57:07;;;;;;;27.20;20.52;;;19.50;40.20;;;;;;5021024;28;20386;-70
2022/04/30 09:59:38;;;;;;;28.52;20.70;;;19.50;39.70;;;;;;5021009;28;20029;-70
2022/04/30 10:02:06;;;;;;;28.83;19.45;;;19.60;38.90;;;;;;5023402;28;20033;-70
2022/04/30 10:04:34;;;;;;;28.20;20.52;;;19.80;38.80;;;;;;5012214;28;20046;-70
2022/04/30 10:07:01;;;;;;;28.90;20.10;;;19.90;38.60;;;;;;5009442;28;20026;-69
2022/04/30 10:09:35;;;;;;;31.15;20.50;;;19.80;38.30;;;;;;5028796;28;20033;-70
2022/04/30 10:12:15;;;;;;;30.27;20.33;;;19.60;39.30;;;;;;5014810;28;20026;-70
2022/04/30 10:14:47;;;;;;;29.10;20.33;;;19.60;40.00;;;;;;5016509;28;20032;-70
2022/04/30 10:17:16;;;;;;;26.98;20.48;;;19.70;39.60;;;;;;5018626;28;20030;-69
2022/04/30 10:19:45;;;;;;;30.77;20.02;;;19.60;39.30;;;;;;5016429;28;20452;-69
2022/04/30 10:22:14;;;;;;;29.48;19.23;;;19.60;39.70;;;;;;5011903;28;20034;-70
2022/04/30 10:24:48;;;;;;;26.08;20.05;;;19.50;39.20;;;;;;5028423;28;20033;-70
2022/04/30 10:27:15;;;;;;;30.83;20.55;;;19.30;39.80;;;;;;5022519;28;20033;-70
2022/04/30 10:29:55;;;;;;;29.30;19.60;;;19.50;40.50;;;;;;5028561;28;20057;-70
2022/04/30 10:32:29;;;;;;;31.10;19.97;;;19.50;40.80;;;;;;5027677;28;20029;-70
2022/04/30 10:34:55;;;;;;;32.17;20.30;;;19.40;40.40;;;;;;5031104;28;20043;-69
2022/04/30 10:37:35;;;;;;;26.38;20.13;;;19.30;40.50;;;;;;5022033;28;20080;-68
2022/04/30 10:40:11;;;;;;;28.70;20.52;;;19.30;41.10;;;;;;5021098;28;20048;-68
2022/04/30 10:42:39;;;;;;;28.13;19.83;;;19.30;41.10;;;;;;5034327;28;20033;-69
2022/04/30 10:45:07;;;;;;;28.58;19.88;;;19.20;40.50;;;;;;5030374;28;20049;-70
2022/04/30 10:47:33;;;;;;;28.67;18.98;;;19.10;41.50;;;;;;5020307;28;20025;-69
2022/04/30 10:50:00;;;;;;;29.17;19.48;;;19.00;41.90;;;;;;5021788;28;20648;-69
2022/04/30 10:52:26;;;;;;;34.42;18.92;;;19.10;41.00;;;;;;5020299;28;20610;-69
2022/04/30 10:54:58;;;;;;;27.20;18.58;;;19.30;40.70;;;;;;5014006;28;20026;-69
2022/04/30 10:57:24;;;;;;;27.05;18.83;;;19.40;40.80;;;;;;5022853;28;20551;-69
2022/04/30 11:00:01;;;;;;;32.60;19.60;;;19.60;40.30;;;;;;5018101;28;20057;-69
2022/04/30 11:02:31;;;;;;;31.10;18.88;;;20.00;40.00;;;;;;5015680;28;20157;-70
2022/04/30 11:04:58;;;;;;;26.50;18.88;;;20.70;38.80;;;;;;5022047;28;20399;-70
2022/04/30 11:07:28;;;;;;;26.90;19.02;;;21.00;37.70;;;;;;5026694;28;20037;-70
2022/04/30 11:09:54;;;;;;;24.08;18.40;;;21.50;37.70;;;;;;5029239;28;20029;-69
2022/04/30 11:12:19;;;;;;;28.10;18.30;;;21.90;36.40;;;;;;5014755;28;20072;-69
2022/04/30 11:14:45;;;;;;;27.23;18.20;;;22.40;36.40;;;;;;5026179;28;20057;-70
2022/04/30 11:17:11;;;;;;;25.33;18.08;;;22.80;34.90;;;;;;5026596;28;20033;-70
2022/04/30 11:19:41;;;;;;;25.48;18.27;;;23.30;34.30;;;;;;5027551;28;20101;-70
2022/04/30 11:22:13;;;;;;;27.23;19.08;;;23.80;32.70;;;;;;5013508;28;20022;-70
2022/04/30 11:24:41;;;;;;;27.35;19.08;;;23.70;31.30;;;;;;5051945;28;20037;-70
2022/04/30 11:27:09;;;;;;;25.63;18.77;;;24.20;31.80;;;;;;5019765;28;20041;-70
2022/04/30 11:29:37;;;;;;;26.15;18.90;;;24.60;31.20;;;;;;5014713;28;20618;-71
2022/04/30 11:32:04;;;;;;;26.88;18.52;;;24.80;30.50;;;;;;5015313;28;20061;-70
2022/04/30 11:34:31;;;;;;;27.55;19.27;;;24.60;30.50;;;;;;5025072;28;20022;-70
2022/04/30 18:51:47;;;;;;;23.35;15.65;;;18.50;49.20;;;;;;5041074;28;20433;-69
2022/04/30 19:02:27;;;;;;;26.42;15.48;;;18.20;52.20;;;;;;5035041;28;20523;-68
2022/04/30 19:04:54;;;;;;;19.85;15.00;;;18.20;52.50;;;;;;5039613;28;20404;-69
2022/04/30 19:07:23;;;;;;;21.80;14.93;;;18.20;52.10;;;;;;5028691;28;20021;-68
2022/04/30 19:09:49;;;;;;;20.88;14.55;;;18.20;52.20;;;;;;5026193;28;20029;-69
2022/04/30 19:12:18;;;;;;;20.30;14.10;;;18.20;52.30;;;;;;5037209;28;20025;-69
2022/04/30 19:14:45;;;;;;;19.55;14.45;;;18.20;53.20;;;;;;5047433;28;20045;-69
2022/04/30 19:17:13;;;;;;;26.30;16.33;;;18.20;53.30;;;;;;5036953;28;20030;-69
2022/04/30 19:19:39;;;;;;;24.65;16.33;;;18.20;53.50;;;;;;5049785;28;20030;-69
2022/04/30 19:22:05;;;;;;;23.15;14.27;;;18.10;53.00;;;;;;5034944;28;20124;-69
2022/04/30 19:24:31;;;;;;;21.20;14.38;;;18.10;53.90;;;;;;5043746;28;20044;-69
2022/04/30 19:26:59;;;;;;;24.13;14.68;;;18.10;53.60;;;;;;5028883;28;20142;-69
2022/04/30 19:29:26;;;;;;;18.63;14.50;;;18.00;52.00;;;;;;5029681;28;20030;-69
2022/04/30 19:31:52;;;;;;;23.85;14.93;;;17.90;52.70;;;;;;5035145;28;20480;-69
2022/04/30 19:34:19;;;;;;;21.55;14.63;;;17.90;52.50;;;;;;5040512;28;20079;-69
2022/04/30 19:36:46;;;;;;;21.80;14.30;;;19.00;52.90;;;;;;5030828;28;20041;-69
2022/04/30 19:39:11;;;;;;;18.67;12.80;;;17.80;52.00;;;;;;5037987;28;20440;-68
2022/04/30 19:41:37;;;;;;;23.73;14.38;;;17.70;52.00;;;;;;5035734;28;20082;-69
2022/04/30 19:44:04;;;;;;;20.50;13.57;;;17.60;51.20;;;;;;5035123;28;20032;-69
2022/04/30 19:46:30;;;;;;;20.52;13.77;;;17.60;52.20;;;;;;5038775;28;20029;-69
2022/04/30 19:48:56;;;;;;;20.38;13.63;;;17.50;51.60;;;;;;5032192;28;20025;-69
2022/04/30 19:51:21;;;;;;;20.60;13.38;;;17.50;52.40;;;;;;5044670;28;20140;-69
2022/04/30 19:53:47;;;;;;;20.27;13.52;;;17.50;52.70;;;;;;5056914;28;20028;-69
2022/04/30 19:56:14;;;;;;;20.95;12.80;;;17.40;53.10;;;;;;5061082;28;20531;-69
2022/04/30 19:58:41;;;;;;;21.52;13.48;;;17.30;52.40;;;;;;5058237;28;20408;-69
2022/04/30 20:01:07;;;;;;;21.63;14.30;;;17.30;53.30;;;;;;5057603;28;20428;-69
2022/04/30 20:03:35;;;;;;;20.08;12.27;;;17.30;53.60;;;;;;5046998;28;20136;-69
2022/04/30 20:06:01;;;;;;;20.23;12.23;;;17.30;53.90;;;;;;5043986;28;20404;-69
2022/04/30 20:08:28;;;;;;;20.00;11.80;;;17.20;53.90;;;;;;5043548;28;20104;-69
2022/04/30 20:19:09;;;;;;;16.08;10.40;;;17.00;55.00;;;;;;5044215;28;20491;-69
2022/04/30 20:21:34;;;;;;;17.30;10.70;;;17.00;55.40;;;;;;5049963;28;20068;-69
2022/04/30 20:24:00;;;;;;;19.55;11.00;;;16.90;55.50;;;;;;5045975;28;20028;-69
2022/04/30 20:26:26;;;;;;;19.33;10.07;;;16.90;55.60;;;;;;5040548;28;20033;-69
2022/04/30 20:28:52;;;;;;;16.67;10.20;;;16.80;55.00;;;;;;5045178;28;20029;-69
2022/04/30 20:36:48;;;;;;;17.13;10.27;;;16.70;55.30;;;;;;5048743;28;20043;-69
2022/04/30 20:39:15;;;;;;;16.38;10.27;;;16.70;55.40;;;;;;5042217;28;20025;-69
2022/04/30 20:41:42;;;;;;;17.98;10.23;;;16.60;55.40;;;;;;5043319;28;20425;-69
2022/04/30 20:44:08;;;;;;;15.65;9.93;;;16.60;56.30;;;;;;5043234;28;20034;-69
2022/04/30 20:46:35;;;;;;;15.45;9.82;;;16.60;56.50;;;;;;5048959;28;20040;-69